Time;durP1;ratioP1;P1;durP2;ratioP2;P2;SDS_P1;SDS_P2;PMS_P1;PMS_P2;Temp;Humidity;BMP_temperature;BMP_pressure;BME280_temperature;BME280_humidity;BME280_pressure;Samples;Min_cycle;Max_cycle;Signal;HPM_P1;HPM_P2
2023/01/07 00:01:28;;;;;;;26.83;13.23;;;;;;;;;;5036513;28;20707;-56
2023/01/07 00:03:57;;;;;;;24.63;16.60;;;;;;;;;;5036732;28;20193;-53
2023/01/07 00:06:27;;;;;;;40.57;18.57;;;;;;;;;;5036487;28;20205;-51
2023/01/07 00:08:55;;;;;;;22.67;13.20;;;;;;;;;;5036512;28;20219;-52
2023/01/07 00:11:31;;;;;;;28.97;13.73;;;;;;;;;;5036292;28;20208;-55
2023/01/07 00:13:58;;;;;;;23.67;12.63;;;;;;;;;;5036631;28;20250;-47
2023/01/07 00:16:29;;;;;;;29.63;13.53;;;;;;;;;;5036146;28;20233;-51
2023/01/07 00:18:57;;;;;;;22.77;12.60;;;;;;;;;;5036233;28;20209;-53
2023/01/07 00:21:25;;;;;;;21.50;13.50;;;;;;;;;;5036451;28;20201;-51
2023/01/07 00:23:58;;;;;;;47.77;18.07;;;;;;;;;;5035809;28;20263;-50
2023/01/07 00:26:29;;;;;;;28.20;15.17;;;;;;;;;;5036050;28;20209;-49
2023/01/07 00:28:57;;;;;;;58.83;19.93;;;;;;;;;;5036077;28;20244;-53
2023/01/07 00:31:26;;;;;;;37.57;29.53;;;;;;;;;;5035898;28;20274;-53
2023/01/07 00:36:23;;;;;;;23.93;13.57;;;;;;;;;;5035215;28;20208;-52
2023/01/07 00:38:55;;;;;;;33.80;15.07;;;;;;;;;;5034943;28;20200;-53
2023/01/07 00:41:22;;;;;;;26.83;13.87;;;;;;;;;;5035772;28;20205;-50
2023/01/07 00:43:50;;;;;;;27.83;13.77;;;;;;;;;;5034767;28;20236;-51
2023/01/07 00:46:17;;;;;;;24.80;13.40;;;;;;;;;;5035672;28;20208;-49
2023/01/07 00:48:44;;;;;;;26.50;14.57;;;;;;;;;;5034808;28;20197;-50
2023/01/07 00:51:14;;;;;;;23.03;12.43;;;;;;;;;;5035678;28;20525;-49
2023/01/07 00:53:41;;;;;;;33.90;19.63;;;;;;;;;;5034601;28;20239;-51
2023/01/07 00:56:09;;;;;;;37.53;17.57;;;;;;;;;;5035461;28;20660;-52
2023/01/07 00:58:37;;;;;;;36.43;16.03;;;;;;;;;;5034777;28;20291;-49
2023/01/07 01:01:05;;;;;;;32.00;21.40;;;;;;;;;;5034623;28;20196;-49
2023/01/07 01:03:33;;;;;;;36.00;21.03;;;;;;;;;;5034410;28;20211;-49
2023/01/07 01:06:03;;;;;;;23.60;13.70;;;;;;;;;;5034430;28;20208;-54
2023/01/07 01:08:31;;;;;;;29.00;13.93;;;;;;;;;;5035410;28;20299;-49
2023/01/07 01:11:05;;;;;;;31.07;14.57;;;;;;;;;;5035394;28;20553;-48
2023/01/07 01:13:33;;;;;;;29.07;14.33;;;;;;;;;;5035138;28;20200;-48
2023/01/07 01:16:01;;;;;;;33.23;14.53;;;;;;;;;;5035141;28;20654;-53
2023/01/07 01:18:28;;;;;;;27.27;13.37;;;;;;;;;;5034878;28;20261;-48
2023/01/07 01:20:55;;;;;;;27.70;14.23;;;;;;;;;;5035247;28;20505;-50
2023/01/07 01:23:22;;;;;;;36.23;19.23;;;;;;;;;;5033988;28;20634;-52
2023/01/07 01:25:49;;;;;;;31.47;14.33;;;;;;;;;;5033952;28;20404;-48
2023/01/07 01:28:16;;;;;;;29.63;13.50;;;;;;;;;;5035001;28;20212;-49
2023/01/07 01:30:45;;;;;;;88.50;58.17;;;;;;;;;;5017903;28;20201;-50
2023/01/07 01:33:12;;;;;;;37.93;21.87;;;;;;;;;;5033852;28;20211;-50
2023/01/07 01:35:40;;;;;;;27.40;14.63;;;;;;;;;;5034314;28;20779;-48
2023/01/07 01:38:08;;;;;;;31.03;15.53;;;;;;;;;;5033291;28;20282;-49
2023/01/07 01:40:36;;;;;;;23.33;12.67;;;;;;;;;;5033951;28;20270;-50
2023/01/07 01:43:31;;;;;;;27.17;12.37;;;;;;;;;;5034588;28;20249;-51
2023/01/07 01:46:18;;;;;;;23.70;11.43;;;;;;;;;;5033689;28;20263;-49
2023/01/07 01:48:51;;;;;;;16.83;10.87;;;;;;;;;;5017679;28;20196;-51
2023/01/07 01:51:21;;;;;;;23.47;12.10;;;;;;;;;;5033631;28;20645;-49
2023/01/07 01:53:49;;;;;;;27.23;13.90;;;;;;;;;;5034744;28;20243;-50
2023/01/07 01:56:22;;;;;;;23.60;11.17;;;;;;;;;;5017589;28;20208;-49
2023/01/07 01:58:59;;;;;;;21.93;10.90;;;;;;;;;;5033663;28;20232;-54
2023/01/07 02:01:27;;;;;;;20.23;11.90;;;;;;;;;;5017416;28;20205;-50
2023/01/07 02:03:56;;;;;;;21.47;11.57;;;;;;;;;;5033496;28;20201;-49
2023/01/07 02:06:25;;;;;;;16.73;10.87;;;;;;;;;;5017351;28;20209;-49
2023/01/07 02:08:54;;;;;;;18.83;10.90;;;;;;;;;;5033202;28;20534;-49
2023/01/07 02:11:35;;;;;;;18.70;10.97;;;;;;;;;;5033183;28;20539;-51
2023/01/07 02:14:40;;;;;;;20.83;10.27;;;;;;;;;;5034111;28;20652;-49
2023/01/07 02:17:38;;;;;;;20.67;10.43;;;;;;;;;;5033122;28;20708;-51
2023/01/07 02:20:27;;;;;;;19.37;11.10;;;;;;;;;;5017142;28;20212;-51
2023/01/07 02:23:01;;;;;;;25.23;14.60;;;;;;;;;;5033146;28;20192;-49
2023/01/07 02:26:09;;;;;;;17.80;10.10;;;;;;;;;;5033090;28;20283;-49
2023/01/07 02:29:17;;;;;;;89.23;50.63;;;;;;;;;;5033191;28;20216;-49
2023/01/07 02:32:17;;;;;;;55.83;27.77;;;;;;;;;;5033860;28;20588;-49
2023/01/07 02:35:03;;;;;;;22.57;12.73;;;;;;;;;;4982514;28;20201;-50
2023/01/07 02:38:17;;;;;;;20.40;10.23;;;;;;;;;;5033007;28;20320;-52
2023/01/07 02:40:53;;;;;;;31.77;12.67;;;;;;;;;;5016683;28;20547;-49
2023/01/07 02:43:47;;;;;;;20.60;10.77;;;;;;;;;;5032790;28;20697;-50
2023/01/07 02:46:27;;;;;;;27.03;12.10;;;;;;;;;;5033320;28;20177;-49
2023/01/07 02:48:58;;;;;;;28.00;11.93;;;;;;;;;;5019880;28;20205;-49
2023/01/07 02:51:33;;;;;;;69.77;30.13;;;;;;;;;;5036992;28;20730;-51
2023/01/07 02:54:00;;;;;;;30.73;15.00;;;;;;;;;;5037891;28;20215;-52
2023/01/07 02:56:42;;;;;;;25.10;12.10;;;;;;;;;;5020738;28;20564;-49
2023/01/07 02:59:42;;;;;;;39.67;23.93;;;;;;;;;;5036822;28;20634;-48
2023/01/07 03:02:18;;;;;;;50.80;22.83;;;;;;;;;;4996326;28;20649;-50
2023/01/07 03:05:06;;;;;;;18.47;11.30;;;;;;;;;;5037609;28;20680;-49
2023/01/07 03:07:52;;;;;;;24.27;11.60;;;;;;;;;;5036662;28;20193;-49
2023/01/07 03:10:40;;;;;;;20.20;11.07;;;;;;;;;;5036612;28;20594;-50
2023/01/07 03:13:13;;;;;;;23.50;11.73;;;;;;;;;;5036902;28;20193;-49
2023/01/07 03:16:12;;;;;;;26.90;12.27;;;;;;;;;;5020144;28;20656;-51
2023/01/07 03:19:02;;;;;;;35.90;14.97;;;;;;;;;;4995909;28;20679;-50
2023/01/07 03:21:30;;;;;;;41.97;19.03;;;;;;;;;;4979948;28;20265;-51
2023/01/07 03:24:00;;;;;;;44.80;17.73;;;;;;;;;;4996006;28;20206;-50
2023/01/07 03:26:33;;;;;;;21.83;11.13;;;;;;;;;;4979831;28;20609;-51
2023/01/07 03:29:02;;;;;;;18.57;11.23;;;;;;;;;;4995938;28;20742;-52
2023/01/07 03:31:31;;;;;;;25.53;19.30;;;;;;;;;;4979730;28;20210;-49
2023/01/07 03:34:20;;;;;;;17.13;10.43;;;;;;;;;;4995892;28;20225;-52
2023/01/07 03:36:53;;;;;;;15.93;10.40;;;;;;;;;;4964089;28;20209;-52
2023/01/07 03:39:23;;;;;;;20.60;11.23;;;;;;;;;;4979642;28;20214;-50
2023/01/07 03:44:37;;;;;;;18.97;11.53;;;;;;;;;;4966061;28;20670;-50
2023/01/07 03:47:06;;;;;;;23.13;12.07;;;;;;;;;;4995585;28;20694;-49
2023/01/07 03:49:35;;;;;;;19.70;10.93;;;;;;;;;;4979422;28;20232;-51
2023/01/07 03:52:03;;;;;;;33.30;17.00;;;;;;;;;;4979375;28;20264;-49
2023/01/07 03:54:31;;;;;;;27.33;12.73;;;;;;;;;;5006193;28;20278;-50
2023/01/07 03:56:58;;;;;;;20.07;10.70;;;;;;;;;;5036817;28;20204;-50
2023/01/07 03:59:25;;;;;;;19.47;11.13;;;;;;;;;;5035775;28;20205;-50
2023/01/07 04:01:52;;;;;;;56.13;42.47;;;;;;;;;;5036710;28;20201;-49
2023/01/07 04:04:20;;;;;;;37.30;17.20;;;;;;;;;;5035879;28;20240;-52
2023/01/07 04:06:48;;;;;;;43.17;17.10;;;;;;;;;;5035509;28;20200;-49
2023/01/07 04:09:17;;;;;;;38.87;14.50;;;;;;;;;;5035757;28;20212;-52
2023/01/07 04:11:45;;;;;;;26.63;13.63;;;;;;;;;;5035704;28;20219;-49
2023/01/07 04:14:12;;;;;;;26.87;12.90;;;;;;;;;;5036261;28;20209;-51
2023/01/07 04:16:39;;;;;;;20.23;11.47;;;;;;;;;;5036231;28;20525;-49
2023/01/07 04:19:07;;;;;;;20.67;11.70;;;;;;;;;;5019074;28;20669;-52
2023/01/07 04:21:34;;;;;;;40.63;17.97;;;;;;;;;;5035268;28;20204;-49
2023/01/07 04:24:03;;;;;;;31.77;16.90;;;;;;;;;;5035161;28;20541;-50
2023/01/07 04:26:32;;;;;;;28.63;14.40;;;;;;;;;;5035979;28;20221;-51
2023/01/07 04:29:00;;;;;;;39.10;14.70;;;;;;;;;;5035337;28;20247;-51
2023/01/07 04:31:27;;;;;;;31.10;17.83;;;;;;;;;;5035282;28;20200;-49
2023/01/07 04:33:55;;;;;;;110.53;98.30;;;;;;;;;;5035154;28;20200;-48
2023/01/07 04:36:22;;;;;;;59.60;26.17;;;;;;;;;;5034940;28;20219;-50
2023/01/07 04:38:49;;;;;;;36.80;14.60;;;;;;;;;;5035684;28;20661;-49
2023/01/07 04:41:16;;;;;;;46.60;16.43;;;;;;;;;;5036064;28;20215;-49
2023/01/07 04:43:43;;;;;;;34.47;13.73;;;;;;;;;;5035568;28;20256;-49
2023/01/07 04:46:10;;;;;;;23.07;11.67;;;;;;;;;;5036020;28;20232;-52
2023/01/07 04:48:38;;;;;;;40.73;16.00;;;;;;;;;;5035011;28;20510;-50
2023/01/07 04:51:06;;;;;;;28.53;12.83;;;;;;;;;;5035014;28;20291;-53
2023/01/07 04:53:33;;;;;;;42.07;17.80;;;;;;;;;;5034630;28;20219;-54
2023/01/07 04:56:01;;;;;;;33.23;15.83;;;;;;;;;;5034633;28;20228;-53
2023/01/07 04:58:29;;;;;;;68.67;19.00;;;;;;;;;;5034651;28;20290;-55
2023/01/07 05:01:02;;;;;;;83.40;33.47;;;;;;;;;;5034757;28;20275;-55
2023/01/07 05:03:35;;;;;;;113.13;74.90;;;;;;;;;;5034554;28;20204;-51
2023/01/07 05:06:03;;;;;;;59.07;26.23;;;;;;;;;;5034423;28;20209;-49
2023/01/07 05:08:32;;;;;;;57.37;21.03;;;;;;;;;;5034600;28;20580;-50
2023/01/07 05:11:00;;;;;;;69.27;21.50;;;;;;;;;;5034192;28;20196;-50
2023/01/07 05:13:30;;;;;;;63.33;19.60;;;;;;;;;;5034406;28;20219;-50
2023/01/07 05:15:59;;;;;;;44.47;16.53;;;;;;;;;;5034245;28;20669;-50
2023/01/07 05:18:27;;;;;;;55.07;20.20;;;;;;;;;;5034004;28;20220;-50
2023/01/07 05:20:54;;;;;;;30.13;14.23;;;;;;;;;;5034323;28;20243;-49
2023/01/07 05:23:21;;;;;;;110.03;35.40;;;;;;;;;;5035108;28;20213;-51
2023/01/07 05:25:49;;;;;;;102.90;34.53;;;;;;;;;;5034153;28;20204;-51
2023/01/07 05:28:18;;;;;;;74.30;21.33;;;;;;;;;;5033984;28;20684;-51
2023/01/07 05:30:46;;;;;;;77.57;21.43;;;;;;;;;;5034237;28;20299;-49
2023/01/07 05:33:13;;;;;;;134.27;54.43;;;;;;;;;;5034181;28;20196;-50
2023/01/07 05:35:40;;;;;;;91.93;70.47;;;;;;;;;;5034065;28;20234;-52
2023/01/07 05:38:08;;;;;;;68.87;30.80;;;;;;;;;;5017420;28;20700;-51
2023/01/07 05:40:35;;;;;;;53.53;22.20;;;;;;;;;;5034678;28;20201;-49
2023/01/07 05:43:03;;;;;;;40.87;16.30;;;;;;;;;;5033533;28;20247;-50
2023/01/07 05:45:30;;;;;;;32.27;14.40;;;;;;;;;;5033922;28;20384;-50
2023/01/07 05:47:58;;;;;;;36.40;15.40;;;;;;;;;;5034773;28;20204;-51
2023/01/07 05:50:25;;;;;;;52.90;18.27;;;;;;;;;;5034507;28;20621;-49
2023/01/07 05:52:52;;;;;;;23.90;13.27;;;;;;;;;;5034334;28;20215;-53
2023/01/07 05:55:20;;;;;;;112.87;33.93;;;;;;;;;;5034472;28;20599;-54
2023/01/07 05:57:47;;;;;;;80.30;28.47;;;;;;;;;;5034186;28;20205;-50
2023/01/07 06:00:14;;;;;;;127.03;32.30;;;;;;;;;;5034536;28;20212;-49
2023/01/07 06:02:42;;;;;;;66.67;19.50;;;;;;;;;;5034535;28;20278;-50
2023/01/07 06:05:09;;;;;;;116.10;90.83;;;;;;;;;;5034406;28;20204;-49
2023/01/07 06:07:37;;;;;;;73.43;36.93;;;;;;;;;;5034479;28;20189;-51
2023/01/07 06:10:05;;;;;;;35.37;17.43;;;;;;;;;;5033146;28;20267;-49
2023/01/07 06:12:33;;;;;;;76.30;21.97;;;;;;;;;;5034024;28;20592;-51
2023/01/07 06:15:00;;;;;;;69.37;22.93;;;;;;;;;;5033933;28;20705;-52
2023/01/07 06:17:27;;;;;;;49.10;17.93;;;;;;;;;;5033858;28;20205;-49
2023/01/07 06:19:54;;;;;;;31.43;14.77;;;;;;;;;;5034122;28;20233;-49
2023/01/07 06:22:21;;;;;;;50.90;18.30;;;;;;;;;;5033411;28;20619;-50
2023/01/07 06:24:48;;;;;;;35.27;14.40;;;;;;;;;;5033798;28;20212;-48
2023/01/07 06:27:16;;;;;;;58.33;31.27;;;;;;;;;;5033680;28;20205;-51
2023/01/07 06:29:43;;;;;;;41.77;19.53;;;;;;;;;;5033708;28;20205;-53
2023/01/07 06:32:10;;;;;;;56.03;17.03;;;;;;;;;;5033777;28;20212;-52
2023/01/07 06:34:37;;;;;;;43.27;17.80;;;;;;;;;;5033753;28;20204;-49
2023/01/07 06:37:05;;;;;;;38.03;24.17;;;;;;;;;;5033549;28;20211;-53
2023/01/07 06:39:32;;;;;;;110.23;39.67;;;;;;;;;;5033541;28;20232;-54
2023/01/07 06:41:59;;;;;;;119.67;35.27;;;;;;;;;;5033358;28;20200;-55
2023/01/07 06:44:26;;;;;;;134.77;33.43;;;;;;;;;;5033275;28;20247;-55
2023/01/07 06:46:54;;;;;;;89.20;25.03;;;;;;;;;;5033750;28;20216;-53
2023/01/07 06:49:21;;;;;;;72.90;22.80;;;;;;;;;;5033604;28;20270;-49
2023/01/07 06:51:48;;;;;;;62.57;21.47;;;;;;;;;;5033264;28;20594;-49
2023/01/07 06:54:15;;;;;;;54.87;18.70;;;;;;;;;;5030360;28;20204;-50
2023/01/07 06:56:42;;;;;;;172.10;46.67;;;;;;;;;;5033038;28;20208;-51
2023/01/07 06:59:10;;;;;;;100.40;41.80;;;;;;;;;;5031830;28;20226;-53
2023/01/07 07:01:38;;;;;;;95.30;29.07;;;;;;;;;;5011692;28;20259;-53
2023/01/07 07:04:05;;;;;;;107.63;28.43;;;;;;;;;;5031916;28;20242;-50
2023/01/07 07:06:32;;;;;;;59.73;30.67;;;;;;;;;;5032023;28;20225;-49
2023/01/07 07:08:59;;;;;;;75.63;46.13;;;;;;;;;;5032373;28;20221;-49
2023/01/07 07:11:27;;;;;;;111.70;41.63;;;;;;;;;;5031838;28;20216;-47
2023/01/07 07:13:54;;;;;;;112.97;35.73;;;;;;;;;;5031700;28;20696;-49
2023/01/07 07:16:22;;;;;;;86.63;24.93;;;;;;;;;;5032149;28;20247;-48
2023/01/07 07:18:50;;;;;;;81.73;23.03;;;;;;;;;;5032555;28;20294;-48
2023/01/07 07:21:17;;;;;;;100.80;27.90;;;;;;;;;;5032481;28;20232;-48
2023/01/07 07:23:44;;;;;;;79.63;25.23;;;;;;;;;;5031559;28;20224;-52
2023/01/07 07:26:11;;;;;;;61.30;18.80;;;;;;;;;;5030370;28;20237;-49
2023/01/07 07:28:41;;;;;;;147.23;52.23;;;;;;;;;;5031951;28;20665;-54
2023/01/07 07:31:08;;;;;;;56.53;24.20;;;;;;;;;;5031659;28;20231;-55
2023/01/07 07:33:36;;;;;;;157.27;37.77;;;;;;;;;;5031050;28;20263;-50
2023/01/07 07:36:04;;;;;;;346.00;133.10;;;;;;;;;;5032515;28;20247;-51
2023/01/07 07:38:30;;;;;;;99.40;71.87;;;;;;;;;;5035186;28;20224;-52
2023/01/07 07:40:59;;;;;;;86.60;36.40;;;;;;;;;;5034080;28;20890;-52
2023/01/07 07:43:26;;;;;;;56.47;21.30;;;;;;;;;;5036156;28;20699;-50
2023/01/07 07:45:54;;;;;;;93.10;26.33;;;;;;;;;;5034988;28;20233;-51
2023/01/07 07:48:21;;;;;;;71.50;21.03;;;;;;;;;;5034964;28;20232;-61
2023/01/07 07:50:51;;;;;;;51.60;19.23;;;;;;;;;;5035091;28;20220;-51
2023/01/07 07:53:19;;;;;;;61.23;22.27;;;;;;;;;;5034627;28;20665;-54
2023/01/07 07:55:46;;;;;;;45.53;19.67;;;;;;;;;;5036499;28;20703;-54
2023/01/07 07:58:13;;;;;;;63.10;23.70;;;;;;;;;;5036399;28;20242;-53
2023/01/07 08:00:41;;;;;;;76.10;31.13;;;;;;;;;;5035984;28;20220;-52
2023/01/07 08:03:09;;;;;;;54.20;22.23;;;;;;;;;;5035922;28;20258;-51
2023/01/07 08:05:41;;;;;;;54.07;19.10;;;;;;;;;;5035563;28;20209;-54
2023/01/07 08:08:11;;;;;;;43.70;17.73;;;;;;;;;;5036166;28;20227;-50
2023/01/07 08:10:38;;;;;;;47.70;17.97;;;;;;;;;;5036346;28;20204;-52
2023/01/07 08:13:05;;;;;;;68.10;24.50;;;;;;;;;;5035670;28;20227;-50
2023/01/07 08:15:33;;;;;;;110.77;30.30;;;;;;;;;;5036312;28;20197;-51
2023/01/07 08:18:01;;;;;;;145.10;39.00;;;;;;;;;;5035357;28;20215;-54
2023/01/07 08:20:29;;;;;;;192.30;131.93;;;;;;;;;;5034409;28;20225;-54
2023/01/07 08:23:00;;;;;;;170.97;86.63;;;;;;;;;;5035099;28;20216;-51
2023/01/07 08:25:29;;;;;;;52.17;25.77;;;;;;;;;;5034618;28;20193;-49
2023/01/07 08:27:58;;;;;;;69.00;26.13;;;;;;;;;;5032710;28;20208;-50
2023/01/07 08:30:26;;;;;;;94.93;30.43;;;;;;;;;;5032733;28;20212;-55
2023/01/07 08:32:53;;;;;;;61.37;23.47;;;;;;;;;;5032385;28;20227;-53
2023/01/07 08:35:21;;;;;;;75.90;27.17;;;;;;;;;;5032241;28;20515;-53
2023/01/07 08:37:48;;;;;;;85.63;30.27;;;;;;;;;;5033346;28;20284;-51
2023/01/07 08:40:16;;;;;;;77.53;26.80;;;;;;;;;;5034106;28;20228;-56
2023/01/07 08:42:43;;;;;;;94.77;39.27;;;;;;;;;;5033640;28;20673;-55
2023/01/07 08:45:10;;;;;;;95.57;38.03;;;;;;;;;;5032876;28;20494;-51
2023/01/07 08:47:37;;;;;;;142.07;41.47;;;;;;;;;;5033496;28;20211;-48
2023/01/07 08:50:05;;;;;;;133.33;41.50;;;;;;;;;;5033735;28;20200;-53
2023/01/07 08:52:32;;;;;;;140.47;56.97;;;;;;;;;;5032411;28;20831;-52
2023/01/07 08:55:00;;;;;;;195.63;78.63;;;;;;;;;;5034815;28;20652;-53
2023/01/07 08:57:27;;;;;;;177.93;65.80;;;;;;;;;;5035384;28;20266;-51
2023/01/07 08:59:54;;;;;;;104.63;42.83;;;;;;;;;;5034822;28;20220;-55
2023/01/07 09:02:21;;;;;;;66.27;25.73;;;;;;;;;;5034990;28;20212;-49
2023/01/07 09:04:49;;;;;;;46.97;21.40;;;;;;;;;;5034571;28;20255;-53
2023/01/07 09:07:16;;;;;;;51.87;21.73;;;;;;;;;;5034734;28;20215;-55
2023/01/07 09:09:43;;;;;;;47.20;21.93;;;;;;;;;;5033877;28;20205;-54
2023/01/07 09:12:10;;;;;;;65.73;25.40;;;;;;;;;;5023892;28;20225;-54
2023/01/07 09:14:38;;;;;;;133.03;48.90;;;;;;;;;;5033323;28;20302;-54
2023/01/07 09:17:05;;;;;;;106.67;45.27;;;;;;;;;;5032590;28;20233;-56
2023/01/07 09:19:32;;;;;;;70.00;30.37;;;;;;;;;;5033846;28;20295;-55
2023/01/07 09:21:59;;;;;;;41.43;18.70;;;;;;;;;;5032922;28;20290;-55
2023/01/07 09:24:26;;;;;;;44.60;19.50;;;;;;;;;;5032927;28;20228;-54
2023/01/07 09:26:53;;;;;;;76.97;27.07;;;;;;;;;;5032091;28;20251;-56
2023/01/07 09:29:21;;;;;;;62.50;24.23;;;;;;;;;;5033590;28;20274;-55
2023/01/07 09:31:48;;;;;;;72.67;24.83;;;;;;;;;;5033195;28;20600;-60
2023/01/07 09:34:15;;;;;;;70.67;24.70;;;;;;;;;;5033831;28;20221;-61
2023/01/07 09:36:42;;;;;;;104.67;39.63;;;;;;;;;;5033054;28;20298;-60
2023/01/07 09:39:10;;;;;;;110.40;74.80;;;;;;;;;;5033453;28;20699;-61
2023/01/07 09:41:41;;;;;;;76.47;36.33;;;;;;;;;;5032526;28;20231;-60
2023/01/07 09:44:17;;;;;;;52.20;23.53;;;;;;;;;;5031312;28;20287;-62
2023/01/07 09:46:46;;;;;;;236.33;62.83;;;;;;;;;;5033499;28;20193;-59
2023/01/07 09:49:18;;;;;;;71.23;35.37;;;;;;;;;;5034066;28;20626;-60
2023/01/07 09:51:51;;;;;;;64.20;29.80;;;;;;;;;;5034131;28;20518;-58
2023/01/07 09:54:31;;;;;;;64.77;25.80;;;;;;;;;;5027351;28;20523;-54
2023/01/07 09:56:59;;;;;;;105.43;53.00;;;;;;;;;;5032545;28;20234;-54
2023/01/07 09:59:26;;;;;;;111.03;54.13;;;;;;;;;;5033060;28;20283;-59
2023/01/07 10:02:15;;;;;;;84.63;40.63;;;;;;;;;;5032794;28;20514;-54
2023/01/07 10:04:51;;;;;;;58.97;28.40;;;;;;;;;;5032495;28;20535;-59
2023/01/07 10:07:30;;;;;;;51.00;23.50;;;;;;;;;;5033067;28;20220;-63
2023/01/07 10:10:00;;;;;;;60.67;28.23;;;;;;;;;;5028357;28;20661;-60
2023/01/07 10:12:54;;;;;;;74.47;41.57;;;;;;;;;;5031739;28;20232;-57
2023/01/07 10:15:50;;;;;;;64.33;28.60;;;;;;;;;;5031199;28;20236;-60
2023/01/07 10:18:23;;;;;;;65.63;27.40;;;;;;;;;;5032461;28;20221;-61
2023/01/07 10:20:58;;;;;;;62.83;26.03;;;;;;;;;;5033112;28;20239;-61
2023/01/07 10:23:30;;;;;;;81.93;30.13;;;;;;;;;;5032693;28;20224;-60
2023/01/07 10:26:00;;;;;;;80.90;28.53;;;;;;;;;;5026522;28;20561;-54
2023/01/07 10:28:42;;;;;;;64.80;26.20;;;;;;;;;;5013746;28;20299;-62
2023/01/07 10:31:19;;;;;;;86.00;30.73;;;;;;;;;;5010789;28;20868;-58
2023/01/07 10:33:47;;;;;;;76.50;32.33;;;;;;;;;;5029322;28;20308;-58
2023/01/07 10:36:28;;;;;;;93.60;38.80;;;;;;;;;;5032240;28;20560;-61
2023/01/07 10:39:10;;;;;;;68.53;28.97;;;;;;;;;;5031254;28;20235;-53
2023/01/07 10:42:15;;;;;;;119.37;42.03;;;;;;;;;;5031969;28;20243;-53
2023/01/07 10:45:19;;;;;;;101.10;57.07;;;;;;;;;;5031810;28;20229;-52
2023/01/07 10:47:57;;;;;;;59.03;25.93;;;;;;;;;;5032481;28;20665;-53
2023/01/07 10:51:02;;;;;;;82.07;32.30;;;;;;;;;;5026726;28;20508;-51
2023/01/07 10:53:57;;;;;;;93.77;35.50;;;;;;;;;;5021961;28;20221;-55
2023/01/07 10:56:31;;;;;;;82.90;30.37;;;;;;;;;;5021044;28;20514;-61
2023/01/07 10:59:03;;;;;;;86.23;31.03;;;;;;;;;;5032953;28;20212;-59
2023/01/07 11:01:34;;;;;;;78.17;31.50;;;;;;;;;;5022082;28;20291;-54
2023/01/07 11:04:03;;;;;;;145.20;55.10;;;;;;;;;;5018671;28;20244;-51
2023/01/07 11:06:50;;;;;;;108.33;45.30;;;;;;;;;;5012563;28;20226;-52
2023/01/07 11:09:21;;;;;;;62.07;26.10;;;;;;;;;;4993535;28;20263;-49
2023/01/07 11:11:49;;;;;;;104.57;43.27;;;;;;;;;;5016943;28;20714;-59
2023/01/07 11:14:26;;;;;;;78.67;43.90;;;;;;;;;;5015657;28;20217;-62
2023/01/07 11:17:07;;;;;;;67.67;34.47;;;;;;;;;;5031665;28;20248;-60
2023/01/07 11:19:47;;;;;;;69.43;28.57;;;;;;;;;;5021580;28;20236;-61
2023/01/07 11:22:28;;;;;;;101.67;34.87;;;;;;;;;;5035963;28;20224;-60
2023/01/07 11:24:57;;;;;;;74.50;28.67;;;;;;;;;;5033340;28;20216;-61
2023/01/07 11:27:31;;;;;;;82.40;29.77;;;;;;;;;;5032342;28;20232;-61
2023/01/07 11:30:06;;;;;;;84.10;33.50;;;;;;;;;;5033415;28;20286;-61
2023/01/07 11:32:39;;;;;;;92.63;32.90;;;;;;;;;;5034475;28;20228;-61
2023/01/07 11:35:20;;;;;;;94.30;32.50;;;;;;;;;;5035929;28;20252;-61
2023/01/07 11:37:49;;;;;;;95.33;41.07;;;;;;;;;;5034057;28;20269;-62
2023/01/07 11:40:21;;;;;;;86.80;38.57;;;;;;;;;;5033956;28;20291;-61
2023/01/07 11:42:55;;;;;;;190.43;69.97;;;;;;;;;;5034688;28;20228;-63
2023/01/07 11:45:25;;;;;;;82.43;42.93;;;;;;;;;;5035116;28;20571;-62
2023/01/07 11:47:55;;;;;;;88.17;38.70;;;;;;;;;;5034352;28;20224;-61
2023/01/07 11:50:29;;;;;;;64.73;30.67;;;;;;;;;;5022653;28;20228;-62
2023/01/07 11:53:08;;;;;;;284.90;121.40;;;;;;;;;;5025802;28;20599;-61
2023/01/07 11:55:36;;;;;;;273.23;82.87;;;;;;;;;;5035712;28;20255;-61
2023/01/07 11:58:05;;;;;;;234.37;66.77;;;;;;;;;;5034968;28;20298;-61
2023/01/07 12:01:08;;;;;;;164.23;53.50;;;;;;;;;;5035225;28;20225;-60
2023/01/07 12:03:42;;;;;;;165.27;53.10;;;;;;;;;;5035675;28;20228;-61
2023/01/07 12:06:10;;;;;;;208.03;78.80;;;;;;;;;;5035478;28;20229;-64
2023/01/07 12:08:40;;;;;;;94.13;33.87;;;;;;;;;;5033826;28;20558;-61
2023/01/07 12:11:10;;;;;;;158.47;51.60;;;;;;;;;;5035367;28;20244;-61
2023/01/07 12:13:40;;;;;;;127.67;54.43;;;;;;;;;;5035390;28;20237;-60
2023/01/07 12:16:07;;;;;;;174.83;58.70;;;;;;;;;;5035196;28;20221;-60
2023/01/07 12:19:03;;;;;;;157.77;49.40;;;;;;;;;;5033863;28;20601;-61
2023/01/07 12:21:48;;;;;;;204.77;56.40;;;;;;;;;;5034970;28;20252;-64
2023/01/07 12:24:31;;;;;;;277.47;74.73;;;;;;;;;;5034170;28;20221;-62
2023/01/07 12:27:26;;;;;;;115.80;36.93;;;;;;;;;;5035326;28;20282;-60
2023/01/07 12:30:08;;;;;;;131.77;40.07;;;;;;;;;;5017923;28;20245;-61
2023/01/07 12:33:12;;;;;;;242.03;63.83;;;;;;;;;;5035528;28;20232;-60
2023/01/07 12:35:42;;;;;;;279.03;76.33;;;;;;;;;;5035479;28;20228;-61
2023/01/07 12:38:13;;;;;;;210.27;59.60;;;;;;;;;;5032978;28;20220;-62
2023/01/07 12:40:53;;;;;;;134.73;48.90;;;;;;;;;;5024009;28;20332;-65
2023/01/07 12:43:23;;;;;;;153.47;55.13;;;;;;;;;;5023599;28;20681;-63
2023/01/07 12:45:56;;;;;;;151.13;50.70;;;;;;;;;;5020291;28;20588;-63
2023/01/07 12:48:29;;;;;;;105.30;38.23;;;;;;;;;;5023784;28;20704;-66
2023/01/07 12:50:58;;;;;;;65.67;27.03;;;;;;;;;;5023531;28;20239;-62
2023/01/07 12:53:50;;;;;;;105.57;37.87;;;;;;;;;;5020237;28;20221;-63
2023/01/07 12:56:22;;;;;;;74.93;31.43;;;;;;;;;;5022784;28;20351;-63
2023/01/07 12:58:57;;;;;;;71.80;29.80;;;;;;;;;;5017228;28;20214;-65
2023/01/07 13:01:25;;;;;;;76.10;30.50;;;;;;;;;;5020901;28;20318;-66
2023/01/07 13:04:00;;;;;;;129.27;59.23;;;;;;;;;;5023054;28;20673;-66
2023/01/07 13:06:47;;;;;;;66.03;29.77;;;;;;;;;;5024467;28;20295;-66
2023/01/07 13:09:33;;;;;;;53.00;24.33;;;;;;;;;;5022393;28;20268;-62
2023/01/07 13:15:19;;;;;;;64.70;36.20;;;;;;;;;;5023976;28;20229;-69
2023/01/07 13:17:52;;;;;;;78.73;38.00;;;;;;;;;;5032299;28;20229;-68
2023/01/07 13:20:46;;;;;;;49.30;21.03;;;;;;;;;;5033365;28;20669;-64
2023/01/07 13:23:50;;;;;;;110.43;39.07;;;;;;;;;;5033727;28;20223;-62
2023/01/07 13:26:45;;;;;;;79.13;31.13;;;;;;;;;;5033264;28;20566;-60
2023/01/07 13:29:46;;;;;;;67.30;26.77;;;;;;;;;;5033029;28;20216;-63
2023/01/07 13:32:31;;;;;;;60.27;24.23;;;;;;;;;;5032860;28;20523;-63
2023/01/07 13:35:10;;;;;;;69.80;28.30;;;;;;;;;;5032929;28;20654;-61
2023/01/07 13:38:08;;;;;;;71.17;29.73;;;;;;;;;;5032507;28;20232;-63
2023/01/07 13:40:58;;;;;;;70.93;27.40;;;;;;;;;;5032855;28;20570;-62
2023/01/07 13:43:34;;;;;;;67.07;32.00;;;;;;;;;;5033484;28;20662;-61
2023/01/07 13:46:06;;;;;;;67.37;32.17;;;;;;;;;;5032756;28;20252;-62
2023/01/07 13:48:37;;;;;;;53.73;24.13;;;;;;;;;;5033098;28;20224;-60
2023/01/07 13:51:06;;;;;;;53.53;22.30;;;;;;;;;;5030411;28;20320;-63
2023/01/07 13:53:38;;;;;;;70.27;28.07;;;;;;;;;;5031199;28;20224;-62
2023/01/07 13:56:17;;;;;;;70.97;27.13;;;;;;;;;;5031617;28;20287;-60
2023/01/07 13:58:52;;;;;;;64.30;25.77;;;;;;;;;;5033499;28;20681;-60
2023/01/07 14:01:26;;;;;;;76.37;28.53;;;;;;;;;;5032507;28;20262;-63
2023/01/07 14:03:57;;;;;;;85.50;30.47;;;;;;;;;;5032329;28;20227;-61
2023/01/07 14:06:38;;;;;;;86.20;34.33;;;;;;;;;;5032594;28;20287;-58
2023/01/07 14:09:05;;;;;;;56.30;24.47;;;;;;;;;;5030624;28;20286;-61
2023/01/07 14:11:32;;;;;;;77.90;45.70;;;;;;;;;;5032244;28;20221;-60
2023/01/07 14:14:17;;;;;;;67.87;34.67;;;;;;;;;;5032594;28;20235;-60
2023/01/07 14:17:18;;;;;;;61.53;25.27;;;;;;;;;;5031736;28;20255;-61
2023/01/07 14:20:17;;;;;;;84.57;30.73;;;;;;;;;;5032309;28;20217;-61
2023/01/07 14:23:00;;;;;;;80.37;31.90;;;;;;;;;;5030530;28;20240;-61
2023/01/07 14:25:39;;;;;;;74.90;28.30;;;;;;;;;;5032473;28;20227;-60
2023/01/07 14:28:19;;;;;;;70.57;27.90;;;;;;;;;;5032912;28;20225;-60
2023/01/07 14:30:49;;;;;;;68.63;26.80;;;;;;;;;;5031549;28;20220;-55
2023/01/07 14:33:26;;;;;;;88.30;40.63;;;;;;;;;;5015095;28;20232;-64
2023/01/07 14:35:57;;;;;;;65.00;30.90;;;;;;;;;;5030047;28;20678;-61
2023/01/07 14:38:30;;;;;;;68.20;25.90;;;;;;;;;;5035156;28;20331;-59
2023/01/07 14:41:06;;;;;;;136.33;46.73;;;;;;;;;;5032046;28;20240;-58
2023/01/07 14:43:44;;;;;;;53.90;26.63;;;;;;;;;;5032340;28;20554;-61
2023/01/07 14:46:22;;;;;;;73.03;34.70;;;;;;;;;;5037695;28;20212;-60
2023/01/07 14:49:01;;;;;;;53.53;24.17;;;;;;;;;;5038552;28;20271;-60
2023/01/07 14:51:46;;;;;;;73.63;29.77;;;;;;;;;;5038309;28;20224;-60
2023/01/07 14:54:31;;;;;;;83.07;29.90;;;;;;;;;;5037802;28;20734;-62
2023/01/07 14:57:20;;;;;;;70.80;25.27;;;;;;;;;;5038675;28;20666;-60